Time;durP1;ratioP1;P1;durP2;ratioP2;P2;SDS_P1;SDS_P2;PMS_P1;PMS_P2;Temp;Humidity;BMP_temperature;BMP_pressure;BME280_temperature;BME280_humidity;BME280_pressure;Samples;Min_cycle;Max_cycle;Signal;HPM_P1;HPM_P2
2022/06/01 00:00:21;;;;;;;5.55;2.42;;;409.70;2355.20;;;;;;4992338;28;20026;-55
2022/06/01 00:02:47;;;;;;;3.63;1.98;;;409.80;2355.20;;;;;;4991838;28;20034;-55
2022/06/01 00:05:12;;;;;;;3.83;2.30;;;409.80;2355.20;;;;;;4992205;28;20022;-54
2022/06/01 00:07:38;;;;;;;2.90;1.55;;;409.70;2355.20;;;;;;4992257;28;20110;-55
2022/06/01 00:10:05;;;;;;;3.45;1.85;;;409.70;2355.20;;;;;;4992125;28;20026;-55
2022/06/01 00:12:31;;;;;;;3.50;2.20;;;409.70;2355.20;;;;;;4991815;28;20034;-55
2022/06/01 00:14:57;;;;;;;4.82;2.28;;;409.70;2355.20;;;;;;4991656;28;20072;-55
2022/06/01 00:17:24;;;;;;;3.63;2.22;;;409.70;2355.20;;;;;;4991993;28;20022;-54
2022/06/01 00:19:50;;;;;;;3.10;1.70;;;409.60;2355.20;;;;;;4991735;28;20062;-54
2022/06/01 00:22:16;;;;;;;3.33;2.20;;;409.60;2355.20;;;;;;4991863;28;20084;-55
2022/06/01 00:24:44;;;;;;;3.47;1.80;;;409.60;2355.20;;;;;;4991577;28;20537;-55
2022/06/01 00:27:13;;;;;;;5.22;2.25;;;409.60;2355.20;;;;;;4991271;28;20065;-56
2022/06/01 00:29:39;;;;;;;6.28;2.17;;;409.60;2355.20;;;;;;4991589;28;20030;-54
2022/06/01 00:32:06;;;;;;;4.75;1.98;;;409.60;2355.20;;;;;;4991728;28;20370;-55
2022/06/01 00:34:33;;;;;;;4.50;2.58;;;409.60;2355.20;;;;;;4991601;28;20067;-55
2022/06/01 00:36:59;;;;;;;3.78;2.08;;;409.60;2355.20;;;;;;4991194;28;20030;-56
2022/06/01 00:39:25;;;;;;;5.25;2.00;;;409.60;2355.20;;;;;;4991412;28;20066;-55
2022/06/01 00:41:51;;;;;;;6.53;2.30;;;384.90;2329.60;;;;;;4991073;28;20069;-55
2022/06/01 00:44:17;;;;;;;5.10;2.15;;;384.90;2329.60;;;;;;4991497;28;20431;-56
2022/06/01 00:46:43;;;;;;;3.30;1.60;;;384.90;2329.60;;;;;;4991049;28;20024;-55
2022/06/01 00:49:21;;;;;;;3.92;2.35;;;384.80;2329.60;;;;;;4991093;28;20384;-54
2022/06/01 00:51:48;;;;;;;3.88;2.22;;;384.80;2329.60;;;;;;4991000;28;20120;-56
2022/06/01 00:54:15;;;;;;;4.38;2.05;;;384.90;2329.60;;;;;;4990949;28;20050;-55
2022/06/01 00:56:55;;;;;;;3.22;1.70;;;384.80;2329.60;;;;;;4990834;28;20124;-55
2022/06/01 00:59:26;;;;;;;5.90;3.15;;;384.70;2329.60;;;;;;4990895;28;20030;-56
2022/06/01 01:01:55;;;;;;;6.53;2.78;;;384.60;2329.60;;;;;;4991152;28;20110;-55
2022/06/01 01:04:22;;;;;;;8.13;3.20;;;384.50;2329.60;;;;;;4990798;28;20034;-55
2022/06/01 01:06:48;;;;;;;6.50;2.17;;;384.30;2329.60;;;;;;4990909;28;20037;-56
2022/06/01 01:09:14;;;;;;;3.75;2.22;;;384.20;2329.60;;;;;;4990925;28;20499;-55
2022/06/01 01:12:05;;;;;;;2.63;1.65;;;384.10;2278.40;;;;;;4990869;28;20034;-55
2022/06/01 01:14:32;;;;;;;3.70;2.55;;;384.10;2329.60;;;;;;4990633;28;20036;-56
2022/06/01 01:16:59;;;;;;;5.43;2.45;;;384.00;2329.60;;;;;;4990751;28;20380;-56
2022/06/01 01:19:35;;;;;;;4.18;1.88;;;384.00;2329.60;;;;;;4990864;28;20507;-55
2022/06/01 01:22:08;;;;;;;3.03;1.98;;;384.00;2329.60;;;;;;4990995;28;20033;-55
2022/06/01 01:24:49;;;;;;;9.93;2.17;;;384.00;2329.60;;;;;;4990814;28;20034;-54
2022/06/01 01:27:15;;;;;;;5.30;2.28;;;384.10;2329.60;;;;;;4990539;28;20125;-54
2022/06/01 01:29:43;;;;;;;4.15;2.35;;;384.10;2329.60;;;;;;4990555;28;20116;-55
2022/06/01 01:32:11;;;;;;;4.60;2.20;;;384.10;2329.60;;;;;;4990603;28;20420;-54
2022/06/01 01:34:39;;;;;;;7.53;2.42;;;384.00;2329.60;;;;;;4990816;28;20030;-56
2022/06/01 01:37:10;;;;;;;3.53;2.53;;;359.30;2329.60;;;;;;4990675;28;20473;-55
2022/06/01 01:39:37;;;;;;;4.22;2.45;;;359.20;2329.60;;;;;;4990706;28;20035;-55
2022/06/01 01:42:04;;;;;;;4.32;2.45;;;359.10;2329.60;;;;;;4990804;28;20054;-54
2022/06/01 01:44:41;;;;;;;4.78;2.55;;;359.10;2329.60;;;;;;4990539;28;20549;-54
2022/06/01 01:47:07;;;;;;;4.63;2.22;;;359.10;2329.60;;;;;;4990376;28;20022;-56
2022/06/01 01:49:36;;;;;;;3.78;2.25;;;359.00;2329.60;;;;;;4990866;28;20030;-55
2022/06/01 01:52:05;;;;;;;6.20;2.80;;;359.00;2329.60;;;;;;4990694;28;20035;-53
2022/06/01 01:54:46;;;;;;;3.53;2.25;;;359.00;2329.60;;;;;;4990548;28;20598;-55
2022/06/01 01:57:30;;;;;;;7.88;2.83;;;359.10;2329.60;;;;;;4990516;28;20177;-54
2022/06/01 02:00:10;;;;;;;8.10;2.28;;;359.10;2329.60;;;;;;4992257;28;20023;-55
2022/06/01 02:03:26;;;;;;;3.67;1.98;;;359.10;2329.60;;;;;;4994319;28;20863;-54
2022/06/01 02:06:04;;;;;;;9.48;2.42;;;359.20;2201.60;;;;;;4934211;29;20031;-55
2022/06/01 02:08:55;;;;;;;4.25;2.55;;;359.20;2201.60;;;;;;4934265;29;20498;-56
2022/06/01 02:14:47;;;;;;;4.07;2.10;;;359.20;2329.60;;;;;;4934721;29;20525;-54
2022/06/01 02:17:26;;;;;;;5.97;2.20;;;359.20;2329.60;;;;;;4934187;29;20122;-55
2022/06/01 02:20:04;;;;;;;4.03;2.25;;;359.20;2329.60;;;;;;4934191;29;20202;-56
2022/06/01 02:22:31;;;;;;;2.47;1.80;;;359.00;2329.60;;;;;;4933841;29;20474;-54
2022/06/01 02:24:56;;;;;;;4.10;2.45;;;359.00;2329.60;;;;;;4933419;29;20103;-56
2022/06/01 02:27:23;;;;;;;3.40;2.03;;;359.00;2329.60;;;;;;4933993;29;20491;-54
2022/06/01 02:29:57;;;;;;;7.25;2.42;;;359.00;2329.60;;;;;;4933617;29;20110;-54
2022/06/01 02:32:26;;;;;;;3.85;2.35;;;359.10;2329.60;;;;;;4933969;29;20419;-53
2022/06/01 02:34:54;;;;;;;4.97;2.13;;;359.00;2329.60;;;;;;4933903;29;20043;-55
2022/06/01 02:37:22;;;;;;;3.70;2.20;;;358.90;2329.60;;;;;;4985919;28;20532;-55
2022/06/01 02:39:52;;;;;;;8.82;2.28;;;359.00;2329.60;;;;;;4993333;28;20030;-56
2022/06/01 02:42:30;;;;;;;9.85;3.28;;;358.90;2329.60;;;;;;4993639;28;20121;-55
2022/06/01 02:45:06;;;;;;;4.95;2.70;;;358.90;2329.60;;;;;;4993619;28;20073;-55
2022/06/01 02:47:36;;;;;;;2.97;2.20;;;359.00;2329.60;;;;;;4993686;28;20113;-55
2022/06/01 02:50:02;;;;;;;7.10;1.77;;;359.10;2329.60;;;;;;4993685;28;20073;-55
2022/06/01 02:52:28;;;;;;;4.90;2.60;;;359.20;2329.60;;;;;;4993354;28;20023;-55
2022/06/01 02:54:54;;;;;;;4.80;2.30;;;359.30;2329.60;;;;;;4993053;28;20030;-55
2022/06/01 02:57:20;;;;;;;3.60;2.53;;;359.20;2329.60;;;;;;4993304;28;20026;-54
2022/06/01 02:59:47;;;;;;;6.65;2.50;;;359.10;2329.60;;;;;;4993272;28;20036;-56
2022/06/01 03:02:13;;;;;;;5.25;2.42;;;359.00;2329.60;;;;;;4993201;28;20516;-55
2022/06/01 03:04:40;;;;;;;3.35;2.00;;;359.00;2329.60;;;;;;4992937;28;20121;-56
2022/06/01 03:07:07;;;;;;;4.63;2.30;;;359.00;2329.60;;;;;;4992892;28;20026;-55
2022/06/01 03:09:33;;;;;;;3.35;2.60;;;358.90;2329.60;;;;;;4993335;28;20031;-53
2022/06/01 03:11:59;;;;;;;4.05;2.10;;;358.90;2329.60;;;;;;4992811;28;20311;-55
2022/06/01 03:14:25;;;;;;;3.92;2.25;;;359.00;2329.60;;;;;;4993143;28;20038;-56
2022/06/01 03:16:51;;;;;;;7.10;2.60;;;359.10;2329.60;;;;;;4992810;28;20557;-55
2022/06/01 03:19:17;;;;;;;3.58;2.22;;;359.00;2329.60;;;;;;4992721;28;20081;-55
2022/06/01 03:21:43;;;;;;;5.50;2.67;;;359.00;2329.60;;;;;;4993029;28;20023;-55
2022/06/01 03:24:09;;;;;;;6.55;2.47;;;359.10;2329.60;;;;;;4992416;28;20444;-55
2022/06/01 03:26:36;;;;;;;4.03;2.47;;;359.10;2329.60;;;;;;4992752;28;20539;-56
2022/06/01 03:29:03;;;;;;;2.95;2.03;;;359.10;2329.60;;;;;;4992976;28;20030;-55
2022/06/01 03:31:29;;;;;;;6.53;2.58;;;359.20;2329.60;;;;;;4992488;28;20033;-55
2022/06/01 03:33:55;;;;;;;4.47;2.40;;;359.30;2329.60;;;;;;4992783;28;20034;-55
2022/06/01 03:36:21;;;;;;;7.38;2.90;;;359.30;2329.60;;;;;;4992464;28;20038;-55
2022/06/01 03:38:47;;;;;;;4.82;2.58;;;384.10;2329.60;;;;;;4992599;28;20022;-56
2022/06/01 03:41:13;;;;;;;3.47;2.00;;;384.20;2329.60;;;;;;4992616;28;20027;-54
2022/06/01 03:46:23;;;;;;;5.05;2.35;;;384.50;2329.60;;;;;;4992897;28;20374;-55
2022/06/01 03:48:49;;;;;;;3.90;2.08;;;384.70;2329.60;;;;;;4992303;28;20030;-55
2022/06/01 03:51:15;;;;;;;3.97;2.17;;;384.50;1971.20;;;;;;4992382;28;20050;-55
2022/06/01 03:53:41;;;;;;;4.07;3.03;;;384.50;2099.20;;;;;;4992061;28;20069;-55
2022/06/01 03:56:08;;;;;;;6.13;3.10;;;384.80;2329.60;;;;;;4992201;28;20027;-54
2022/06/01 03:58:35;;;;;;;3.85;2.20;;;384.90;2329.60;;;;;;4992358;28;20535;-56
2022/06/01 04:01:02;;;;;;;7.45;2.63;;;409.70;2355.20;;;;;;4974956;28;20394;-55
2022/06/01 04:03:29;;;;;;;5.05;2.78;;;409.90;2355.20;;;;;;4991897;28;20107;-56
2022/06/01 04:05:55;;;;;;;6.22;2.55;;;410.00;2355.20;;;;;;4991898;28;20469;-55
2022/06/01 04:08:21;;;;;;;6.55;2.67;;;410.20;2355.20;;;;;;4991756;28;20030;-56
2022/06/01 04:10:47;;;;;;;5.57;2.42;;;410.30;2355.20;;;;;;4991694;28;20029;-57
2022/06/01 04:13:14;;;;;;;5.18;2.08;;;410.50;2355.20;;;;;;4992034;28;20061;-55
2022/06/01 04:15:40;;;;;;;5.82;2.42;;;410.50;2355.20;;;;;;4991865;28;20629;-55
2022/06/01 04:18:06;;;;;;;4.55;2.80;;;435.30;2355.20;;;;;;4991908;28;20033;-56
2022/06/01 04:20:32;;;;;;;3.80;2.22;;;435.30;2355.20;;;;;;4992079;28;20064;-56
2022/06/01 04:23:00;;;;;;;3.05;1.95;;;435.40;2355.20;;;;;;4990654;28;20066;-56
2022/06/01 04:25:26;;;;;;;3.78;2.08;;;435.60;2355.20;;;;;;4991709;28;20078;-55
2022/06/01 04:27:52;;;;;;;5.25;2.35;;;435.90;2355.20;;;;;;4991689;28;20034;-54
2022/06/01 04:30:20;;;;;;;3.55;2.13;;;436.00;2355.20;;;;;;4991298;28;20178;-55
2022/06/01 04:32:48;;;;;;;5.57;2.50;;;460.90;2380.80;;;;;;4991480;28;20065;-54
2022/06/01 04:35:15;;;;;;;5.28;2.20;;;487.30;2380.80;;;;;;4991575;28;20030;-56
2022/06/01 04:37:41;;;;;;;3.78;2.53;;;614.70;2432.00;;;;;;4991357;28;20034;-55
2022/06/01 04:40:07;;;;;;;4.75;2.28;;;691.20;2099.20;;;;;;4991323;28;20033;-57
2022/06/01 04:42:33;;;;;;;4.05;2.63;;;742.40;1868.80;;;;;;4991487;28;20125;-54
2022/06/01 04:44:59;;;;;;;3.45;2.20;;;742.60;1766.40;;;;;;4991249;28;20528;-56
2022/06/01 04:47:25;;;;;;;8.45;2.63;;;768.90;1638.40;;;;;;4991287;28;20113;-56
2022/06/01 04:49:51;;;;;;;5.28;2.63;;;794.20;1587.20;;;;;;4991341;28;20389;-56
2022/06/01 04:52:16;;;;;;;6.38;3.22;;;819.80;1484.80;;;;;;4991340;28;20057;-56
2022/06/01 04:54:42;;;;;;;3.50;2.72;;;844.90;1459.20;;;;;;4991143;28;20037;-55
2022/06/01 04:57:08;;;;;;;4.00;2.72;;;845.20;1433.60;;;;;;4991115;28;20397;-56
2022/06/01 04:59:34;;;;;;;5.82;2.70;;;845.70;1408.00;;;;;;4991322;28;20034;-54
2022/06/01 05:02:00;;;;;;;6.32;2.63;;;845.70;1408.00;;;;;;4990917;28;20433;-55
2022/06/01 05:04:28;;;;;;;3.90;2.85;;;870.70;1356.80;;;;;;4990923;28;20479;-56
2022/06/01 05:06:56;;;;;;;4.05;2.88;;;896.40;1305.60;;;;;;4990925;28;20488;-56
2022/06/01 05:09:22;;;;;;;4.53;3.03;;;896.50;1305.60;;;;;;4991173;28;20053;-56
2022/06/01 05:11:48;;;;;;;5.60;2.60;;;921.90;1280.00;;;;;;4990713;28;20034;-56
2022/06/01 05:14:14;;;;;;;4.63;3.45;;;921.90;1254.40;;;;;;4973819;28;20038;-56
2022/06/01 05:16:40;;;;;;;12.52;3.92;;;922.20;1228.80;;;;;;4990826;28;20030;-56
2022/06/01 05:19:06;;;;;;;4.32;3.33;;;948.10;1152.00;;;;;;4990731;28;20469;-58
2022/06/01 05:21:32;;;;;;;6.13;3.33;;;973.00;1177.60;;;;;;4991315;28;20116;-57
2022/06/01 05:23:58;;;;;;;3.47;3.13;;;973.00;1177.60;;;;;;4990660;28;20042;-56
2022/06/01 05:26:25;;;;;;;6.40;3.78;;;947.60;1177.60;;;;;;4990644;28;20436;-56
2022/06/01 05:28:50;;;;;;;3.67;3.35;;;948.10;1152.00;;;;;;4990706;28;20037;-57
2022/06/01 05:31:18;;;;;;;3.83;3.00;;;947.30;1177.60;;;;;;4990899;28;20436;-56
2022/06/01 05:33:44;;;;;;;3.83;3.53;;;947.90;1177.60;;;;;;4990571;28;20065;-57
2022/06/01 05:36:11;;;;;;;4.60;3.92;;;922.50;1228.80;;;;;;4990499;28;20101;-57
2022/06/01 05:38:37;;;;;;;4.03;3.63;;;947.70;1203.20;;;;;;4990390;28;20113;-57
2022/06/01 05:41:02;;;;;;;3.70;3.13;;;973.10;1203.20;;;;;;4990633;28;20114;-56
2022/06/01 05:43:29;;;;;;;4.38;4.03;;;973.40;1177.60;;;;;;4990357;28;20065;-57
2022/06/01 05:45:55;;;;;;;4.20;3.80;;;948.10;1177.60;;;;;;4990693;28;20830;-56
2022/06/01 05:48:22;;;;;;;5.57;4.45;;;947.90;1203.20;;;;;;4990333;28;20437;-57
2022/06/01 05:50:47;;;;;;;5.22;4.75;;;973.40;1177.60;;;;;;5006848;28;20030;-58
2022/06/01 05:53:13;;;;;;;5.45;4.95;;;998.40;1177.60;;;;;;5010013;28;20034;-57
2022/06/01 05:55:39;;;;;;;5.13;4.63;;;1024.10;1126.40;;;;;;5009824;28;20026;-57
2022/06/01 05:58:17;;;;;;;6.70;5.25;;;1050.00;1100.80;;;;;;5010091;28;20108;-58
2022/06/01 06:00:44;;;;;;;5.20;4.80;;;1050.20;1075.20;;;;;;5010138;28;20032;-56
2022/06/01 06:03:10;;;;;;;5.95;5.47;;;1075.90;1049.60;;;;;;5009684;28;20034;-56
2022/06/01 06:08:21;;;;;;;6.93;6.32;;;1126.50;1024.00;;;;;;5010297;28;20104;-56
2022/06/01 06:10:47;;;;;;;6.43;5.38;;;1127.30;998.40;;;;;;5009604;28;20383;-56
2022/06/01 06:13:13;;;;;;;6.60;5.88;;;1152.10;972.80;;;;;;5010168;28;20026;-56
2022/06/01 06:15:39;;;;;;;6.57;5.32;;;1152.10;998.40;;;;;;5009807;28;20465;-57
2022/06/01 06:18:05;;;;;;;6.45;5.93;;;1177.70;947.20;;;;;;5010176;28;20372;-56
2022/06/01 06:20:30;;;;;;;7.10;6.40;;;1203.30;947.20;;;;;;5010033;28;20030;-57
2022/06/01 06:22:56;;;;;;;6.32;5.93;;;1152.70;921.60;;;;;;5009773;28;20030;-59
2022/06/01 06:25:21;;;;;;;7.40;6.90;;;1178.10;896.00;;;;;;5009814;28;20050;-58
2022/06/01 06:27:47;;;;;;;5.97;5.47;;;1204.10;870.40;;;;;;5009802;28;20030;-58
2022/06/01 06:30:18;;;;;;;8.30;7.70;;;1203.70;896.00;;;;;;5009884;28;20025;-57
2022/06/01 06:32:44;;;;;;;7.68;7.07;;;1178.50;896.00;;;;;;5010107;28;20044;-58
2022/06/01 06:35:10;;;;;;;9.45;8.55;;;1203.90;896.00;;;;;;5009600;28;20045;-57
2022/06/01 06:37:36;;;;;;;6.88;6.38;;;1204.10;896.00;;;;;;5010082;28;20029;-57
2022/06/01 06:40:02;;;;;;;8.65;8.00;;;1203.90;896.00;;;;;;5009818;28;20396;-57
2022/06/01 06:42:29;;;;;;;8.50;7.85;;;1229.20;896.00;;;;;;5009507;28;20030;-57
2022/06/01 06:44:55;;;;;;;8.10;7.60;;;1203.90;896.00;;;;;;5009955;28;20064;-57
2022/06/01 06:47:20;;;;;;;8.52;7.72;;;1228.80;921.60;;;;;;5013256;28;20049;-57
2022/06/01 06:49:46;;;;;;;9.45;8.60;;;1229.50;870.40;;;;;;5013477;28;20113;-57
2022/06/01 06:52:12;;;;;;;8.75;8.10;;;1254.40;896.00;;;;;;5013174;28;20026;-58
2022/06/01 06:54:38;;;;;;;8.90;8.20;;;1255.00;844.80;;;;;;5012739;28;20037;-57
2022/06/01 06:57:04;;;;;;;8.63;7.93;;;1203.70;870.40;;;;;;5013175;28;20460;-57
2022/06/01 06:59:30;;;;;;;9.25;8.60;;;1152.70;896.00;;;;;;5012835;28;20384;-57
2022/06/01 07:01:55;;;;;;;9.32;8.70;;;1178.30;844.80;;;;;;5012741;28;20487;-57
2022/06/01 07:04:21;;;;;;;9.05;8.45;;;1178.00;896.00;;;;;;5012829;28;20393;-57
2022/06/01 07:06:47;;;;;;;9.40;8.75;;;1228.80;844.80;;;;;;5012556;28;20393;-57
2022/06/01 07:09:12;;;;;;;9.20;8.57;;;1254.40;844.80;;;;;;5012751;28;20026;-57
2022/06/01 07:11:38;;;;;;;8.75;8.15;;;1254.50;870.40;;;;;;5012464;28;20423;-57
2022/06/01 07:14:04;;;;;;;10.38;9.77;;;1280.20;819.20;;;;;;5012833;28;20092;-57
2022/06/01 07:16:32;;;;;;;9.88;9.27;;;1280.20;819.20;;;;;;5012494;28;20026;-56
2022/06/01 07:19:01;;;;;;;10.90;9.70;;;1280.00;819.20;;;;;;5012565;28;20026;-57
2022/06/01 07:21:28;;;;;;;11.63;10.63;;;1305.90;793.60;;;;;;5012540;28;20026;-56
2022/06/01 07:23:54;;;;;;;11.02;10.10;;;1305.70;819.20;;;;;;5012632;28;20038;-57
2022/06/01 07:26:25;;;;;;;11.80;11.10;;;1305.90;793.60;;;;;;5012220;28;20133;-57
2022/06/01 07:28:52;;;;;;;11.95;11.15;;;1331.40;793.60;;;;;;5012221;28;20133;-57
2022/06/01 07:31:18;;;;;;;11.77;10.98;;;1306.50;742.40;;;;;;5012326;28;20081;-57
2022/06/01 07:33:44;;;;;;;11.18;10.48;;;1306.20;793.60;;;;;;5012527;28;20026;-57
2022/06/01 07:36:12;;;;;;;10.25;9.50;;;1305.90;793.60;;;;;;5012326;28;20022;-57
2022/06/01 07:44:42;;;;;;;10.15;9.38;;;1229.70;844.80;;;;;;4968358;28;20092;-57
2022/06/01 07:47:08;;;;;;;8.70;8.10;;;1255.30;844.80;;;;;;5012004;28;20026;-59
2022/06/01 07:49:36;;;;;;;11.10;10.23;;;1305.70;768.00;;;;;;5012287;28;20021;-59
2022/06/01 07:52:06;;;;;;;11.32;10.52;;;1305.70;768.00;;;;;;5012135;28;20608;-57
2022/06/01 07:54:32;;;;;;;10.60;9.75;;;1305.90;742.40;;;;;;5012480;28;20038;-57
2022/06/01 07:56:58;;;;;;;9.95;9.20;;;1306.50;742.40;;;;;;5010831;28;20495;-57
2022/06/01 07:59:23;;;;;;;9.07;8.57;;;1255.10;793.60;;;;;;5012366;28;20076;-57
2022/06/01 08:01:49;;;;;;;10.70;10.05;;;1280.00;768.00;;;;;;5011666;28;20153;-57
2022/06/01 08:04:16;;;;;;;9.55;8.90;;;1254.60;819.20;;;;;;5012015;28;20041;-56
2022/06/01 08:06:42;;;;;;;8.55;7.90;;;1254.80;793.60;;;;;;5010028;28;20028;-57
2022/06/01 08:09:08;;;;;;;9.48;8.68;;;1229.30;793.60;;;;;;5010044;28;20029;-57
2022/06/01 08:14:18;;;;;;;8.05;7.25;;;1178.00;844.80;;;;;;5010006;28;20141;-56
2022/06/01 08:16:44;;;;;;;6.28;5.75;;;1100.80;921.60;;;;;;5010134;28;20022;-56
2022/06/01 08:19:11;;;;;;;7.47;4.90;;;1024.50;972.80;;;;;;5009321;28;20034;-56
2022/06/01 08:21:38;;;;;;;6.85;4.80;;;998.40;1049.60;;;;;;5009758;28;20022;-57
2022/06/01 08:24:05;;;;;;;4.40;3.88;;;973.00;1100.80;;;;;;5009757;28;20066;-56
2022/06/01 08:26:31;;;;;;;4.00;3.60;;;947.20;1100.80;;;;;;5009567;28;20125;-56
2022/06/01 08:28:57;;;;;;;8.27;4.68;;;922.00;1152.00;;;;;;5009575;28;20476;-55
2022/06/01 08:31:27;;;;;;;6.70;2.95;;;896.60;1126.40;;;;;;5009803;28;20484;-56
2022/06/01 08:33:53;;;;;;;5.43;3.83;;;896.30;1177.60;;;;;;5009587;28;20029;-56
2022/06/01 08:36:19;;;;;;;4.93;3.20;;;871.00;1203.20;;;;;;5009539;28;20087;-57
2022/06/01 08:38:45;;;;;;;5.70;3.10;;;870.70;1228.80;;;;;;5009808;28;20456;-55
2022/06/01 08:41:13;;;;;;;5.05;3.35;;;870.60;1228.80;;;;;;5009816;28;20025;-57
2022/06/01 08:43:53;;;;;;;7.65;3.30;;;870.50;1254.40;;;;;;5009534;28;20049;-56
2022/06/01 08:46:20;;;;;;;6.18;3.15;;;845.70;1254.40;;;;;;5009135;28;20026;-57
2022/06/01 08:49:09;;;;;;;8.15;4.20;;;845.50;1280.00;;;;;;5009461;28;20022;-55
2022/06/01 08:51:35;;;;;;;5.70;3.13;;;845.00;1280.00;;;;;;5009594;28;20022;-55
2022/06/01 08:54:01;;;;;;;6.30;3.10;;;845.00;1331.20;;;;;;5009506;28;20113;-55
2022/06/01 08:56:34;;;;;;;6.60;4.50;;;845.10;1356.80;;;;;;5009313;28;20117;-56
2022/06/01 08:59:22;;;;;;;6.72;3.75;;;845.00;1331.20;;;;;;5008704;28;20030;-55
2022/06/01 09:02:23;;;;;;;8.90;3.83;;;845.30;1305.60;;;;;;5008956;28;20140;-55
2022/06/01 09:04:59;;;;;;;8.68;4.15;;;820.10;1305.60;;;;;;4910099;29;20042;-56
2022/06/01 09:07:37;;;;;;;5.93;3.40;;;845.00;1305.60;;;;;;4910406;29;20032;-56
2022/06/01 09:10:38;;;;;;;5.22;3.40;;;844.90;1331.20;;;;;;4910169;29;20032;-56
2022/06/01 09:13:10;;;;;;;8.00;3.10;;;844.90;1356.80;;;;;;4853696;29;20485;-55
2022/06/01 09:16:08;;;;;;;6.85;4.47;;;844.90;1356.80;;;;;;4854176;29;20133;-55
2022/06/01 09:18:51;;;;;;;4.65;3.40;;;820.10;1382.40;;;;;;4854156;29;20552;-56
2022/06/01 09:24:10;;;;;;;4.47;3.55;;;819.70;1408.00;;;;;;4855882;29;20113;-55
2022/06/01 09:26:54;;;;;;;3.42;3.05;;;819.60;1382.40;;;;;;4855939;29;20121;-56
2022/06/01 09:29:25;;;;;;;6.75;3.75;;;819.60;1408.00;;;;;;4855790;29;20038;-56
2022/06/01 09:32:00;;;;;;;4.97;3.42;;;819.30;1408.00;;;;;;4855956;29;20030;-56
2022/06/01 09:34:37;;;;;;;6.22;3.22;;;819.60;1433.60;;;;;;4856077;29;20640;-55
2022/06/01 09:37:21;;;;;;;5.63;3.95;;;819.60;1382.40;;;;;;4856188;29;20038;-56
2022/06/01 09:40:00;;;;;;;3.88;3.40;;;819.50;1433.60;;;;;;4855931;29;20045;-56
2022/06/01 09:42:41;;;;;;;6.25;3.45;;;794.10;1408.00;;;;;;4930541;29;20517;-55
2022/06/01 09:45:28;;;;;;;9.60;3.47;;;794.20;1433.60;;;;;;4930738;29;20120;-57
2022/06/01 09:48:16;;;;;;;6.55;5.30;;;794.20;1408.00;;;;;;4930693;29;20032;-55
2022/06/01 09:50:46;;;;;;;7.75;3.78;;;794.20;1459.20;;;;;;4981094;28;20121;-55
2022/06/01 09:53:11;;;;;;;6.68;3.85;;;794.40;1459.20;;;;;;4990619;28;20034;-54
2022/06/01 09:55:49;;;;;;;6.80;3.50;;;819.30;1408.00;;;;;;4990316;28;20051;-56
2022/06/01 10:06:54;;;;;;;4.80;3.55;;;819.50;1408.00;;;;;;4949955;29;20063;-55
2022/06/01 10:09:27;;;;;;;7.57;3.92;;;819.70;1408.00;;;;;;4949485;29;20086;-55
2022/06/01 10:11:55;;;;;;;6.00;3.30;;;819.70;1356.80;;;;;;4949488;29;20397;-56
2022/06/01 10:14:42;;;;;;;4.55;3.70;;;844.80;1382.40;;;;;;4949417;29;20092;-56
2022/06/01 10:17:26;;;;;;;8.27;4.40;;;820.00;1382.40;;;;;;4949460;29;20386;-55
2022/06/01 10:20:06;;;;;;;5.80;3.90;;;820.10;1382.40;;;;;;4949951;28;20047;-56
2022/06/01 10:22:38;;;;;;;4.15;3.28;;;844.90;1382.40;;;;;;4953486;29;20613;-55
2022/06/01 10:25:28;;;;;;;5.38;3.53;;;844.90;1433.60;;;;;;4954822;28;20051;-57
2022/06/01 10:28:39;;;;;;;6.22;3.97;;;820.00;1408.00;;;;;;4972308;28;20027;-56
2022/06/01 10:31:14;;;;;;;4.55;2.95;;;819.70;1433.60;;;;;;4914900;29;20075;-57
2022/06/01 10:33:47;;;;;;;9.70;4.50;;;819.60;1459.20;;;;;;4914614;29;20032;-57
2022/06/01 10:36:19;;;;;;;7.32;3.50;;;819.70;1459.20;;;;;;4915011;29;20111;-55
2022/06/01 10:39:09;;;;;;;6.53;3.67;;;819.90;1433.60;;;;;;4932873;29;20473;-55
2022/06/01 10:41:47;;;;;;;5.00;3.50;;;820.00;1408.00;;;;;;4933829;29;20119;-56
2022/06/01 10:44:25;;;;;;;6.13;2.97;;;844.90;1408.00;;;;;;4933485;29;20406;-57
2022/06/01 10:46:59;;;;;;;5.57;3.63;;;820.00;1408.00;;;;;;4917477;29;20036;-56
2022/06/01 10:49:31;;;;;;;6.57;3.30;;;819.80;1408.00;;;;;;4933740;29;20082;-56
2022/06/01 10:52:20;;;;;;;4.43;3.75;;;794.40;1459.20;;;;;;4933754;29;20078;-56
2022/06/01 10:55:12;;;;;;;5.57;3.20;;;819.30;1484.80;;;;;;4933432;29;20036;-56
2022/06/01 10:57:40;;;;;;;6.72;3.20;;;819.60;1459.20;;;;;;4933283;29;20035;-55
2022/06/01 11:00:09;;;;;;;5.75;3.95;;;794.20;1459.20;;;;;;4933405;29;20498;-56
2022/06/01 11:02:56;;;;;;;5.28;3.78;;;794.00;1510.40;;;;;;4933232;29;20035;-56
2022/06/01 11:05:33;;;;;;;7.30;3.53;;;794.10;1510.40;;;;;;4937150;28;20028;-55
2022/06/01 11:08:01;;;;;;;5.60;3.83;;;793.90;1459.20;;;;;;5012656;28;20029;-56
2022/06/01 11:10:49;;;;;;;5.13;3.38;;;793.70;1510.40;;;;;;5012621;28;20117;-56
2022/06/01 11:13:45;;;;;;;9.77;4.28;;;768.90;1459.20;;;;;;5012760;28;20507;-55
2022/06/01 11:16:32;;;;;;;5.78;3.42;;;793.70;1510.40;;;;;;5012554;28;20030;-57
2022/06/01 11:19:11;;;;;;;9.57;4.55;;;768.40;1510.40;;;;;;5012738;28;20113;-56
2022/06/01 11:21:36;;;;;;;7.28;3.80;;;768.90;1484.80;;;;;;5012680;28;20026;-55
2022/06/01 11:24:37;;;;;;;5.75;3.22;;;794.10;1536.00;;;;;;5012811;28;20049;-56
2022/06/01 11:27:30;;;;;;;5.22;4.25;;;794.50;1484.80;;;;;;5012618;28;20137;-56
2022/06/01 11:30:11;;;;;;;5.75;3.85;;;794.50;1433.60;;;;;;5012497;28;20117;-55
2022/06/01 11:32:46;;;;;;;5.45;3.58;;;794.50;1484.80;;;;;;5012021;28;20041;-55
2022/06/01 11:35:20;;;;;;;8.20;4.05;;;794.50;1484.80;;;;;;5012400;28;20022;-55
2022/06/01 11:37:54;;;;;;;4.43;3.50;;;794.20;1536.00;;;;;;5012420;28;20105;-58
2022/06/01 11:40:38;;;;;;;5.63;3.45;;;794.00;1561.60;;;;;;5012112;28;20024;-57
2022/06/01 11:43:27;;;;;;;4.80;3.40;;;768.90;1536.00;;;;;;5012311;28;20041;-56
2022/06/01 11:45:58;;;;;;;5.07;4.20;;;793.70;1587.20;;;;;;5012310;28;20029;-59
2022/06/01 11:48:34;;;;;;;6.93;4.45;;;768.40;1612.80;;;;;;5012568;28;20136;-60
2022/06/01 11:51:19;;;;;;;6.15;3.85;;;768.10;1664.00;;;;;;5012026;28;20124;-57
2022/06/01 11:54:04;;;;;;;5.90;3.58;;;742.90;1689.60;;;;;;5011679;28;20075;-58
2022/06/01 11:56:32;;;;;;;6.63;4.47;;;742.90;1664.00;;;;;;5011725;28;20034;-56
2022/06/01 11:58:58;;;;;;;4.82;4.15;;;742.50;1715.20;;;;;;5011776;28;20026;-56
2022/06/01 12:01:41;;;;;;;6.10;3.60;;;742.70;1715.20;;;;;;5012003;28;20104;-56
2022/06/01 12:04:12;;;;;;;;;;;742.90;1715.20;;;;;;5011794;28;20033;-57
2022/06/01 12:07:27;;;;;;;7.00;3.65;;;742.70;1689.60;;;;;;5011455;28;19909;-57
2022/06/01 12:10:18;;;;;;;5.45;3.72;;;743.00;1689.60;;;;;;4910242;29;20032;-57
2022/06/01 12:12:46;;;;;;;7.65;3.90;;;743.00;1664.00;;;;;;4910839;29;20133;-55
2022/06/01 12:15:18;;;;;;;8.15;3.55;;;743.30;1638.40;;;;;;4911224;29;20119;-57
2022/06/01 12:18:02;;;;;;;10.52;6.75;;;743.30;1689.60;;;;;;4911327;29;20035;-56
2022/06/01 12:20:33;;;;;;;7.15;4.28;;;742.90;1664.00;;;;;;4911055;29;20040;-56
2022/06/01 12:28:53;;;;;;;5.78;4.10;;;742.90;1689.60;;;;;;4911116;29;20075;-57
2022/06/01 12:31:24;;;;;;;6.75;4.25;;;743.00;1664.00;;;;;;4911057;29;20279;-57
2022/06/01 12:34:02;;;;;;;6.32;3.92;;;742.90;1664.00;;;;;;4910660;29;20455;-56
2022/06/01 12:36:39;;;;;;;5.68;3.80;;;743.30;1664.00;;;;;;4910651;29;20446;-56
2022/06/01 12:39:13;;;;;;;6.53;3.80;;;768.10;1638.40;;;;;;4910350;29;20435;-56
2022/06/01 12:41:43;;;;;;;5.20;4.32;;;768.40;1638.40;;;;;;4910692;29;20032;-56
2022/06/01 12:44:10;;;;;;;6.15;4.35;;;743.30;1638.40;;;;;;4910001;29;20044;-56
2022/06/01 12:46:48;;;;;;;8.73;3.97;;;743.10;1664.00;;;;;;4954720;28;20460;-57
2022/06/01 12:49:32;;;;;;;6.78;3.97;;;768.20;1638.40;;;;;;4989854;28;20038;-56
2022/06/01 12:52:05;;;;;;;5.25;4.35;;;743.10;1638.40;;;;;;4988770;28;20503;-57
2022/06/01 12:54:35;;;;;;;9.13;5.43;;;743.20;1664.00;;;;;;4991553;28;20031;-56
2022/06/01 12:57:03;;;;;;;6.35;4.18;;;768.10;1664.00;;;;;;4991458;28;20031;-56
2022/06/01 12:59:37;;;;;;;5.65;3.85;;;768.10;1664.00;;;;;;4991142;28;20072;-56
2022/06/01 13:02:22;;;;;;;5.40;4.18;;;743.30;1689.60;;;;;;4991311;28;20018;-56
2022/06/01 13:04:56;;;;;;;6.88;5.35;;;743.10;1689.60;;;;;;4991152;28;20121;-56
2022/06/01 13:07:33;;;;;;;7.10;3.60;;;743.00;1689.60;;;;;;4991053;28;20050;-57
2022/06/01 13:10:04;;;;;;;7.00;4.95;;;743.10;1664.00;;;;;;4991143;28;20026;-56